首页
METAR-TAF:

METAR-TAF

机场 :

哈里斯堡 / Middletown, 宾夕法尼亚州, 美国

纬度: 40-11-37N, 经度: 076-45-48W, 海拔: 95米

当前天气观测

该预报发布于32分钟前的00:56 UTC
风速3节,风向西
温度 24°C
湿度 78%
气压 1012 hPa
能見度: 16.1公里
散云层高于9000英尺
多云层高于15000英尺

METAR: KMDT 190056Z 26003KT 10SM SCT090 BKN150 24/20 A2987 RMK AO2 SLP113 T02390200

时间: 21:28 (01:28 UTC)

预报

该预报发布于1小时和22分钟前的00:06 UTC
预报有效从19日的 00点(UTC)到 19日的 24点(UTC)
风速3节,风向多变
能見度: 10公里
散云层高于4000英尺
多云层高于12000英尺
从 19日的 0800点(UTC)
风速2节,风向多变
能見度: 6.4公里
多云层高于2500英尺
轻雾
从 19日的 1400点(UTC)
风速2节,风向多变
能見度: 10公里
多云层高于3500英尺
从 19日的 1700点(UTC)
风速3节,风向南转南东
能見度: 10公里
多云层高于4000英尺
附近有阵雨

TAF: KMDT 190006Z 1900/1924 VRB03KT P6SM SCT040 BKN120 FM190800 VRB02KT 4SM BR BKN025 FM191400 VRB02KT P6SM BKN035 FM191700 15003KT P6SM VCSH BKN040

超过4000个机场的气象观测和天气预报(METAR&TAF报告)。

可查询的气象台以黄色和红色小点在地图上表示。

将鼠标移到小点上方,可查看气象台名称。

然后点击查看天气观测和预报。

如需切换地图:点击带黑十字的绿色按钮放大地图;点击带横线的绿色按钮缩小地图;或者点击绿色箭头查看邻近地区的地图。


METAR-TAF: